Terminal Aerodrome Forecast
Issued by NWS

Home | Current Version | Previous Version | Text Only | Print | Product List | Glossary On
Versions: 1 2 3 4 5 6 7 8 9 10 11 12 13 14 15 16 17 18
000
FTUS43 KPAH 191608 AAC
TAFOWB
TAF AMD
KOWB 191608Z 1916/2012 17005KT P6SM SCT008 BKN120
      TEMPO 1916/1918 BKN012
     FM191800 23007KT P6SM BKN025
     FM192000 23006KT P6SM BKN035
     FM200000 18003KT P6SM SKC=

USA.gov is the U.S. government's official web portal to all federal, state and local government web resources and services.